Barton-upon-Humber, United Kingdom
Current Conditions -  °F | °C
As of 4:20 AM on Friday 19 Dec 2014 (Local Time) from EGNJ Reporting Station
Broken Clouds Broken Clouds  
Wind Chill:   Ceiling: 2800
Heat Index:   Visibility: 6mi
Dew Point:   Wind: 15mph
Humidity: 82%   Direction: 240°WSW
Pressure: 29.65"   Gusts: NA
Location:  53.68°N, 0.44°W
Report Text: EGNJ 190420Z AUTO 24013KT 9999 FEW022/// BKN028/// 09/06 Q1004
Loading
Personal Weather Stations






























Interactive Weather Map New forecast layout! Learn more

10-Day Weather Forecast

Advertisements
Track Severe Weather on mobile